Ashford, WA

6:43 PM PDT on July 04, 2015 (GMT -0700)
Paradise Estates | | Change Station
CLOSE
Current Station
Personal Weather Station
Location: Ashford, WA
Elevation: 1722 ft
Nearby Weather Stations
Active Advisory: Special Statement Active Notice: Record Report

Elev 1722 ft 46.73 °N, 122.01 °W | Updated 58 seconds ago

Clear
Clear
84.7 °F
Feels Like 83 °F
N
1.1
Wind Variable Wind from WSW

Today
High -- | Low -- °F
--% Chance of Precip.
Yesterday
High -- | Low -- °F
Precip. -- in
5:19 AM 9:04 PM
Waning Gibbous, 89% visible
Pressure 29.80 in
Visibility 10.0 miles
Clouds Clear
Heat Index 83 °F
Dew Point 50 °F
Humidity 30%
Rainfall 0.00 in
Snow Depth Not available.
UV 5 out of 12
Pollen 6.20 out of 12
Air Quality Not available.
Flu Activity Not available.
METAR KPLU 042355Z AUTO 34007KT 320V020 10SM CLR 33/07 A2980 RMK AO2

More Conditions Fewer Conditions

Pressure 29.80 in
Visibility 10.0 miles
Clouds Clear
Heat Index 83 °F
Dew Point 50 °F
Humidity 30%
Rainfall 0.00 in
Snow Depth Not available.
UV 5 out of 12
Pollen 6.20 out of 12
Air Quality Not available.
Flu Activity Not available.
METAR KPLU 042355Z AUTO 34007KT 320V020 10SM CLR 33/07 A2980 RMK AO2

More Conditions Fewer Conditions

10-Day Weather Forecast

×

Almanac

Astronomy

Jul. 04, 2015 Rise Set
Actual Time
Civil Twilight
Nautical Twilight
Astronomical Twilight
Moon
Length of Visible Light
Length of Day
Tomorrow will be .
, % of the Moon is Illuminated

Today's Extremes

State Highs State Lows

Community

WunderPhotos

Upload Photos

1,835,140 photos uploaded!

WunderBlogs® & News

Nearby

Air Quality

  Air Quality AQ Index Pollutant
Not available.

Snow Depth

Station Depth Elevation

Earthquake Activity

City Distance Mag. Time & Date
Minimum magnitude displayed is 2.5.

Coastal Water Temperatures

Place Temperature

Stations

Nearby Weather Stations

Station Location Temp. Windchill Dew Point Humidity Wind Precip. Elev Updated Type
                   
Special Statement
Statement as of 3:00 PM PDT on July 04, 2015

... Hot weather will continue in western Washington... .

The recent stretch of very warm weather will likely continue into
the middle of next week. Cooler weather is expected by the end
of next week. Hot weather can stress the body and lead to heat
exhaustion. Drink plenty of water and check up on elderly or infirm
relatives if you live in a hot area.


Www.Weather.Gov/Seattle

300 PM PDT Sat Jul 4 2015

... Hot weather will continue in western Washington... .

The recent stretch of very warm weather will likely continue into
the middle of next week. Cooler weather is expected by the end
of next week. Hot weather can stress the body and lead to heat
exhaustion. Drink plenty of water and check up on elderly or infirm
relatives if you live in a hot area.


Www.Weather.Gov/Seattle